sensor_id;sensor_type;location;lat;lon;timestamp;temperature;humidity
17632;DHT22;8934;51.194;17.150;2023-07-20T00:02:29;16.80;99.90
17632;DHT22;8934;51.194;17.150;2023-07-20T00:05:16;16.80;99.90
17632;DHT22;8934;51.194;17.150;2023-07-20T00:08:04;16.80;99.90
17632;DHT22;8934;51.194;17.150;2023-07-20T00:10:52;16.70;99.90
17632;DHT22;8934;51.194;17.150;2023-07-20T00:13:41;16.70;99.90
17632;DHT22;8934;51.194;17.150;2023-07-20T00:16:29;16.70;99.90
17632;DHT22;8934;51.194;17.150;2023-07-20T00:19:16;16.70;99.90
17632;DHT22;8934;51.194;17.150;2023-07-20T00:22:04;16.70;99.90
17632;DHT22;8934;51.194;17.150;2023-07-20T00:24:52;16.60;99.90
17632;DHT22;8934;51.194;17.150;2023-07-20T00:27:40;16.60;99.90
17632;DHT22;8934;51.194;17.150;2023-07-20T00:30:29;16.60;99.90
17632;DHT22;8934;51.194;17.150;2023-07-20T00:33:17;16.60;99.90
17632;DHT22;8934;51.194;17.150;2023-07-20T00:36:06;16.50;99.90
17632;DHT22;8934;51.194;17.150;2023-07-20T00:38:53;16.50;99.90
17632;DHT22;8934;51.194;17.150;2023-07-20T00:41:41;16.50;99.90
17632;DHT22;8934;51.194;17.150;2023-07-20T00:44:29;16.40;99.90
17632;DHT22;8934;51.194;17.150;2023-07-20T00:47:19;16.40;99.90
17632;DHT22;8934;51.194;17.150;2023-07-20T00:50:08;16.30;99.90
17632;DHT22;8934;51.194;17.150;2023-07-20T00:52:57;16.30;99.90
17632;DHT22;8934;51.194;17.150;2023-07-20T00:55:45;16.30;99.90
17632;DHT22;8934;51.194;17.150;2023-07-20T00:58:33;16.30;99.90
17632;DHT22;8934;51.194;17.150;2023-07-20T01:01:22;16.20;99.90
17632;DHT22;8934;51.194;17.150;2023-07-20T01:04:11;16.20;99.90
17632;DHT22;8934;51.194;17.150;2023-07-20T01:07:04;16.20;99.90
17632;DHT22;8934;51.194;17.150;2023-07-20T01:10:01;16.20;99.90
17632;DHT22;8934;51.194;17.150;2023-07-20T01:12:52;16.20;99.90
17632;DHT22;8934;51.194;17.150;2023-07-20T01:15:40;16.20;99.90
17632;DHT22;8934;51.194;17.150;2023-07-20T01:18:28;16.10;99.90
17632;DHT22;8934;51.194;17.150;2023-07-20T01:21:23;16.10;99.90
17632;DHT22;8934;51.194;17.150;2023-07-20T01:24:30;16.10;99.90
17632;DHT22;8934;51.194;17.150;2023-07-20T01:27:49;16.10;99.90
17632;DHT22;8934;51.194;17.150;2023-07-20T01:30:56;16.10;99.90
17632;DHT22;8934;51.194;17.150;2023-07-20T01:33:49;16.10;99.90
17632;DHT22;8934;51.194;17.150;2023-07-20T01:36:37;16.10;99.90
17632;DHT22;8934;51.194;17.150;2023-07-20T01:39:26;16.00;99.90
17632;DHT22;8934;51.194;17.150;2023-07-20T01:42:15;16.00;99.90
17632;DHT22;8934;51.194;17.150;2023-07-20T01:45:03;16.00;99.90
17632;DHT22;8934;51.194;17.150;2023-07-20T01:47:51;15.90;99.90
17632;DHT22;8934;51.194;17.150;2023-07-20T01:50:39;15.90;99.90
17632;DHT22;8934;51.194;17.150;2023-07-20T01:53:27;15.80;99.90
17632;DHT22;8934;51.194;17.150;2023-07-20T01:56:15;15.70;99.90
17632;DHT22;8934;51.194;17.150;2023-07-20T01:59:03;15.60;99.90
17632;DHT22;8934;51.194;17.150;2023-07-20T02:01:50;15.60;99.90
17632;DHT22;8934;51.194;17.150;2023-07-20T02:04:38;15.40;99.90
17632;DHT22;8934;51.194;17.150;2023-07-20T02:07:27;15.40;99.90
17632;DHT22;8934;51.194;17.150;2023-07-20T02:10:15;15.30;99.90
17632;DHT22;8934;51.194;17.150;2023-07-20T02:13:03;15.20;99.90
17632;DHT22;8934;51.194;17.150;2023-07-20T02:15:50;15.10;99.90
17632;DHT22;8934;51.194;17.150;2023-07-20T02:18:40;15.00;99.90
17632;DHT22;8934;51.194;17.150;2023-07-20T02:21:27;15.00;99.90
17632;DHT22;8934;51.194;17.150;2023-07-20T02:24:16;14.90;99.90
17632;DHT22;8934;51.194;17.150;2023-07-20T02:27:05;14.90;99.90
17632;DHT22;8934;51.194;17.150;2023-07-20T02:29:53;14.80;99.90
17632;DHT22;8934;51.194;17.150;2023-07-20T02:32:40;14.80;99.90
17632;DHT22;8934;51.194;17.150;2023-07-20T02:35:32;14.70;99.90
17632;DHT22;8934;51.194;17.150;2023-07-20T02:38:19;14.70;99.90
17632;DHT22;8934;51.194;17.150;2023-07-20T02:41:08;14.60;99.90
17632;DHT22;8934;51.194;17.150;2023-07-20T02:43:56;14.60;99.90
17632;DHT22;8934;51.194;17.150;2023-07-20T02:46:44;14.60;99.90
17632;DHT22;8934;51.194;17.150;2023-07-20T02:49:31;14.50;99.90
17632;DHT22;8934;51.194;17.150;2023-07-20T02:52:19;14.50;99.90
17632;DHT22;8934;51.194;17.150;2023-07-20T02:55:08;14.50;99.90
17632;DHT22;8934;51.194;17.150;2023-07-20T02:57:58;14.50;99.90
17632;DHT22;8934;51.194;17.150;2023-07-20T03:00:45;14.50;99.90
17632;DHT22;8934;51.194;17.150;2023-07-20T03:03:33;14.50;99.90
17632;DHT22;8934;51.194;17.150;2023-07-20T03:06:25;14.50;99.90
17632;DHT22;8934;51.194;17.150;2023-07-20T03:09:13;14.50;99.90
17632;DHT22;8934;51.194;17.150;2023-07-20T03:12:02;14.60;99.90
17632;DHT22;8934;51.194;17.150;2023-07-20T03:14:52;14.60;99.90
17632;DHT22;8934;51.194;17.150;2023-07-20T03:17:40;14.50;99.90
17632;DHT22;8934;51.194;17.150;2023-07-20T03:20:27;14.60;99.90
17632;DHT22;8934;51.194;17.150;2023-07-20T03:23:15;14.60;99.90
17632;DHT22;8934;51.194;17.150;2023-07-20T03:26:03;14.60;99.90
17632;DHT22;8934;51.194;17.150;2023-07-20T03:28:51;14.70;99.90
17632;DHT22;8934;51.194;17.150;2023-07-20T03:31:41;14.80;99.90
17632;DHT22;8934;51.194;17.150;2023-07-20T03:34:32;14.80;99.90
17632;DHT22;8934;51.194;17.150;2023-07-20T03:37:20;14.80;99.90
17632;DHT22;8934;51.194;17.150;2023-07-20T03:40:08;14.80;99.90
17632;DHT22;8934;51.194;17.150;2023-07-20T03:42:56;14.80;99.90
17632;DHT22;8934;51.194;17.150;2023-07-20T03:45:44;14.90;99.90
17632;DHT22;8934;51.194;17.150;2023-07-20T03:48:33;14.90;99.90
17632;DHT22;8934;51.194;17.150;2023-07-20T03:51:21;14.90;99.90
17632;DHT22;8934;51.194;17.150;2023-07-20T03:54:08;15.00;99.90
17632;DHT22;8934;51.194;17.150;2023-07-20T03:56:56;15.00;99.90
17632;DHT22;8934;51.194;17.150;2023-07-20T03:59:45;15.00;99.90
17632;DHT22;8934;51.194;17.150;2023-07-20T04:02:33;15.00;99.90
17632;DHT22;8934;51.194;17.150;2023-07-20T04:05:22;15.00;99.90
17632;DHT22;8934;51.194;17.150;2023-07-20T04:08:10;15.10;99.90
17632;DHT22;8934;51.194;17.150;2023-07-20T04:10:58;15.00;99.90
17632;DHT22;8934;51.194;17.150;2023-07-20T04:13:48;15.10;99.90
17632;DHT22;8934;51.194;17.150;2023-07-20T04:16:36;15.10;99.90
17632;DHT22;8934;51.194;17.150;2023-07-20T04:19:24;15.20;99.90
17632;DHT22;8934;51.194;17.150;2023-07-20T04:22:13;15.30;99.90
17632;DHT22;8934;51.194;17.150;2023-07-20T04:25:02;15.40;99.90
17632;DHT22;8934;51.194;17.150;2023-07-20T04:27:50;15.50;99.90
17632;DHT22;8934;51.194;17.150;2023-07-20T04:30:39;15.60;99.90
17632;DHT22;8934;51.194;17.150;2023-07-20T04:33:26;15.80;99.90
17632;DHT22;8934;51.194;17.150;2023-07-20T04:36:15;15.90;99.90
17632;DHT22;8934;51.194;17.150;2023-07-20T04:39:09;16.00;99.90
17632;DHT22;8934;51.194;17.150;2023-07-20T04:42:11;16.10;99.90
17632;DHT22;8934;51.194;17.150;2023-07-20T04:44:59;16.10;99.90
17632;DHT22;8934;51.194;17.150;2023-07-20T04:47:48;16.20;99.90
17632;DHT22;8934;51.194;17.150;2023-07-20T04:50:37;16.20;99.90
17632;DHT22;8934;51.194;17.150;2023-07-20T04:53:26;16.30;99.90
17632;DHT22;8934;51.194;17.150;2023-07-20T04:56:16;16.30;99.90
17632;DHT22;8934;51.194;17.150;2023-07-20T04:59:05;16.40;99.90
17632;DHT22;8934;51.194;17.150;2023-07-20T05:01:52;16.50;99.90
17632;DHT22;8934;51.194;17.150;2023-07-20T05:04:40;16.70;99.90
17632;DHT22;8934;51.194;17.150;2023-07-20T05:07:28;16.80;99.90
17632;DHT22;8934;51.194;17.150;2023-07-20T05:10:15;16.80;99.90
17632;DHT22;8934;51.194;17.150;2023-07-20T05:13:04;16.90;99.90
17632;DHT22;8934;51.194;17.150;2023-07-20T05:15:52;16.90;99.90
17632;DHT22;8934;51.194;17.150;2023-07-20T05:18:41;16.90;99.90
17632;DHT22;8934;51.194;17.150;2023-07-20T05:21:29;16.90;99.90
17632;DHT22;8934;51.194;17.150;2023-07-20T05:24:17;17.00;99.90
17632;DHT22;8934;51.194;17.150;2023-07-20T05:27:05;17.00;99.90
17632;DHT22;8934;51.194;17.150;2023-07-20T05:29:54;17.20;99.90
17632;DHT22;8934;51.194;17.150;2023-07-20T05:32:42;17.20;99.90
17632;DHT22;8934;51.194;17.150;2023-07-20T05:35:31;17.30;99.90
17632;DHT22;8934;51.194;17.150;2023-07-20T05:38:19;17.40;99.90
17632;DHT22;8934;51.194;17.150;2023-07-20T05:41:07;17.50;99.90
17632;DHT22;8934;51.194;17.150;2023-07-20T05:43:56;17.50;99.90
17632;DHT22;8934;51.194;17.150;2023-07-20T05:46:45;17.60;99.90
17632;DHT22;8934;51.194;17.150;2023-07-20T05:49:43;17.60;99.90
17632;DHT22;8934;51.194;17.150;2023-07-20T05:52:32;17.60;99.90
17632;DHT22;8934;51.194;17.150;2023-07-20T05:55:19;17.70;99.90
17632;DHT22;8934;51.194;17.150;2023-07-20T05:58:07;17.80;99.90
17632;DHT22;8934;51.194;17.150;2023-07-20T06:00:55;18.00;99.90
17632;DHT22;8934;51.194;17.150;2023-07-20T06:03:44;18.00;99.90
17632;DHT22;8934;51.194;17.150;2023-07-20T06:06:31;18.10;99.90
17632;DHT22;8934;51.194;17.150;2023-07-20T06:09:19;18.00;99.90
17632;DHT22;8934;51.194;17.150;2023-07-20T06:12:08;17.90;99.90
17632;DHT22;8934;51.194;17.150;2023-07-20T06:14:56;17.80;99.90
17632;DHT22;8934;51.194;17.150;2023-07-20T06:17:44;17.70;99.90
17632;DHT22;8934;51.194;17.150;2023-07-20T06:20:33;17.70;99.90
17632;DHT22;8934;51.194;17.150;2023-07-20T06:23:21;17.90;99.90
17632;DHT22;8934;51.194;17.150;2023-07-20T06:26:08;18.20;99.90
17632;DHT22;8934;51.194;17.150;2023-07-20T06:28:56;18.40;99.90
17632;DHT22;8934;51.194;17.150;2023-07-20T06:31:44;18.60;99.90
17632;DHT22;8934;51.194;17.150;2023-07-20T06:34:32;18.80;99.90
17632;DHT22;8934;51.194;17.150;2023-07-20T06:37:24;18.90;99.90
17632;DHT22;8934;51.194;17.150;2023-07-20T06:40:12;19.00;99.90
17632;DHT22;8934;51.194;17.150;2023-07-20T06:43:03;19.10;99.90
17632;DHT22;8934;51.194;17.150;2023-07-20T06:45:53;19.00;99.90
17632;DHT22;8934;51.194;17.150;2023-07-20T06:48:41;18.90;99.90
17632;DHT22;8934;51.194;17.150;2023-07-20T06:51:32;18.90;99.90
17632;DHT22;8934;51.194;17.150;2023-07-20T06:54:21;18.90;99.90
17632;DHT22;8934;51.194;17.150;2023-07-20T06:57:09;19.00;99.90
17632;DHT22;8934;51.194;17.150;2023-07-20T07:00:00;19.20;99.90
17632;DHT22;8934;51.194;17.150;2023-07-20T07:02:48;19.40;99.90
17632;DHT22;8934;51.194;17.150;2023-07-20T07:05:36;19.70;99.90
17632;DHT22;8934;51.194;17.150;2023-07-20T07:08:25;19.80;99.90
17632;DHT22;8934;51.194;17.150;2023-07-20T07:11:14;19.90;99.90
17632;DHT22;8934;51.194;17.150;2023-07-20T07:14:01;20.00;99.90
17632;DHT22;8934;51.194;17.150;2023-07-20T07:16:49;20.10;99.90
17632;DHT22;8934;51.194;17.150;2023-07-20T07:19:37;20.10;99.90
17632;DHT22;8934;51.194;17.150;2023-07-20T07:22:25;20.10;99.90
17632;DHT22;8934;51.194;17.150;2023-07-20T07:25:12;20.10;99.90
17632;DHT22;8934;51.194;17.150;2023-07-20T07:28:05;20.50;99.90
17632;DHT22;8934;51.194;17.150;2023-07-20T07:30:55;20.70;99.90
17632;DHT22;8934;51.194;17.150;2023-07-20T07:33:43;20.70;99.90
17632;DHT22;8934;51.194;17.150;2023-07-20T07:36:31;20.70;99.90
17632;DHT22;8934;51.194;17.150;2023-07-20T07:39:19;20.60;99.90
17632;DHT22;8934;51.194;17.150;2023-07-20T07:42:09;20.60;99.90
17632;DHT22;8934;51.194;17.150;2023-07-20T07:44:58;20.40;99.90
17632;DHT22;8934;51.194;17.150;2023-07-20T07:47:46;20.50;99.90
17632;DHT22;8934;51.194;17.150;2023-07-20T07:50:34;20.70;99.90
17632;DHT22;8934;51.194;17.150;2023-07-20T07:53:22;21.00;99.90
17632;DHT22;8934;51.194;17.150;2023-07-20T07:56:12;21.30;99.90
17632;DHT22;8934;51.194;17.150;2023-07-20T07:59:00;21.70;99.90
17632;DHT22;8934;51.194;17.150;2023-07-20T08:01:50;21.90;99.90
17632;DHT22;8934;51.194;17.150;2023-07-20T08:04:38;22.00;99.90
17632;DHT22;8934;51.194;17.150;2023-07-20T08:07:26;21.90;99.90
17632;DHT22;8934;51.194;17.150;2023-07-20T08:10:14;21.70;99.90
17632;DHT22;8934;51.194;17.150;2023-07-20T08:13:02;21.60;99.90
17632;DHT22;8934;51.194;17.150;2023-07-20T08:15:51;21.40;99.90
17632;DHT22;8934;51.194;17.150;2023-07-20T08:18:40;21.30;99.90
17632;DHT22;8934;51.194;17.150;2023-07-20T08:21:28;21.40;99.90
17632;DHT22;8934;51.194;17.150;2023-07-20T08:24:16;21.70;99.90
17632;DHT22;8934;51.194;17.150;2023-07-20T08:27:06;22.00;99.90
17632;DHT22;8934;51.194;17.150;2023-07-20T08:29:53;22.10;99.90
17632;DHT22;8934;51.194;17.150;2023-07-20T08:32:44;22.00;99.90
17632;DHT22;8934;51.194;17.150;2023-07-20T08:35:33;21.90;99.90
17632;DHT22;8934;51.194;17.150;2023-07-20T08:38:21;22.10;99.90
17632;DHT22;8934;51.194;17.150;2023-07-20T08:41:10;22.40;99.90
17632;DHT22;8934;51.194;17.150;2023-07-20T08:43:58;22.70;99.90
17632;DHT22;8934;51.194;17.150;2023-07-20T08:46:48;22.90;99.90
17632;DHT22;8934;51.194;17.150;2023-07-20T08:49:37;23.00;99.90
17632;DHT22;8934;51.194;17.150;2023-07-20T08:52:28;22.90;99.90
17632;DHT22;8934;51.194;17.150;2023-07-20T08:55:16;22.60;99.90
17632;DHT22;8934;51.194;17.150;2023-07-20T08:58:07;22.60;99.90
17632;DHT22;8934;51.194;17.150;2023-07-20T09:00:55;22.90;99.90
17632;DHT22;8934;51.194;17.150;2023-07-20T09:03:46;23.00;99.90
17632;DHT22;8934;51.194;17.150;2023-07-20T09:06:35;23.40;99.90
17632;DHT22;8934;51.194;17.150;2023-07-20T09:09:24;23.80;99.90
17632;DHT22;8934;51.194;17.150;2023-07-20T09:12:15;23.80;99.90
17632;DHT22;8934;51.194;17.150;2023-07-20T09:15:03;23.30;99.90
17632;DHT22;8934;51.194;17.150;2023-07-20T09:17:51;22.40;99.90
17632;DHT22;8934;51.194;17.150;2023-07-20T09:20:40;22.00;99.90
17632;DHT22;8934;51.194;17.150;2023-07-20T09:23:33;22.20;99.90
17632;DHT22;8934;51.194;17.150;2023-07-20T09:26:22;22.50;99.90
17632;DHT22;8934;51.194;17.150;2023-07-20T09:29:13;23.00;99.90
17632;DHT22;8934;51.194;17.150;2023-07-20T09:32:03;23.40;99.90
17632;DHT22;8934;51.194;17.150;2023-07-20T09:34:51;23.90;99.90
17632;DHT22;8934;51.194;17.150;2023-07-20T09:37:39;24.30;99.90
17632;DHT22;8934;51.194;17.150;2023-07-20T09:40:28;24.50;99.90
17632;DHT22;8934;51.194;17.150;2023-07-20T09:43:20;24.30;99.90
17632;DHT22;8934;51.194;17.150;2023-07-20T09:46:10;24.20;99.90
17632;DHT22;8934;51.194;17.150;2023-07-20T09:49:18;24.30;99.90
17632;DHT22;8934;51.194;17.150;2023-07-20T09:52:09;23.90;99.90
17632;DHT22;8934;51.194;17.150;2023-07-20T09:54:57;23.60;99.90
17632;DHT22;8934;51.194;17.150;2023-07-20T09:57:46;23.70;99.90
17632;DHT22;8934;51.194;17.150;2023-07-20T10:00:36;23.90;99.90
17632;DHT22;8934;51.194;17.150;2023-07-20T10:03:29;23.90;99.90
17632;DHT22;8934;51.194;17.150;2023-07-20T10:06:24;24.10;99.90
17632;DHT22;8934;51.194;17.150;2023-07-20T10:09:13;24.50;99.90
17632;DHT22;8934;51.194;17.150;2023-07-20T10:12:03;24.70;99.90
17632;DHT22;8934;51.194;17.150;2023-07-20T10:15:11;25.00;99.90
17632;DHT22;8934;51.194;17.150;2023-07-20T10:18:04;25.40;99.90
17632;DHT22;8934;51.194;17.150;2023-07-20T10:20:55;25.50;99.90
17632;DHT22;8934;51.194;17.150;2023-07-20T10:23:46;25.40;99.90
17632;DHT22;8934;51.194;17.150;2023-07-20T10:26:35;25.70;99.90
17632;DHT22;8934;51.194;17.150;2023-07-20T10:29:25;26.10;99.90
17632;DHT22;8934;51.194;17.150;2023-07-20T10:32:15;26.30;99.90
17632;DHT22;8934;51.194;17.150;2023-07-20T10:35:12;26.20;99.90
17632;DHT22;8934;51.194;17.150;2023-07-20T10:38:01;26.50;99.90
17632;DHT22;8934;51.194;17.150;2023-07-20T10:40:55;26.60;99.90
17632;DHT22;8934;51.194;17.150;2023-07-20T10:43:45;27.00;99.90
17632;DHT22;8934;51.194;17.150;2023-07-20T10:46:34;27.50;99.90
17632;DHT22;8934;51.194;17.150;2023-07-20T10:49:22;27.20;99.90
17632;DHT22;8934;51.194;17.150;2023-07-20T10:52:14;27.00;99.90
17632;DHT22;8934;51.194;17.150;2023-07-20T10:55:10;27.50;99.90
17632;DHT22;8934;51.194;17.150;2023-07-20T10:58:10;27.60;99.90
17632;DHT22;8934;51.194;17.150;2023-07-20T11:01:00;26.80;99.90
17632;DHT22;8934;51.194;17.150;2023-07-20T11:03:50;25.80;99.90
17632;DHT22;8934;51.194;17.150;2023-07-20T11:06:42;25.20;99.90
17632;DHT22;8934;51.194;17.150;2023-07-20T11:09:35;25.50;99.90
17632;DHT22;8934;51.194;17.150;2023-07-20T11:12:24;26.20;99.90
17632;DHT22;8934;51.194;17.150;2023-07-20T11:15:12;26.90;99.90
17632;DHT22;8934;51.194;17.150;2023-07-20T11:18:11;27.40;99.90
17632;DHT22;8934;51.194;17.150;2023-07-20T11:20:59;27.50;99.90
17632;DHT22;8934;51.194;17.150;2023-07-20T11:23:47;27.20;99.90
17632;DHT22;8934;51.194;17.150;2023-07-20T11:26:44;26.80;99.90
17632;DHT22;8934;51.194;17.150;2023-07-20T11:29:31;26.10;99.90
17632;DHT22;8934;51.194;17.150;2023-07-20T11:32:20;25.50;99.90
17632;DHT22;8934;51.194;17.150;2023-07-20T11:35:12;24.80;99.90
17632;DHT22;8934;51.194;17.150;2023-07-20T11:38:00;24.30;99.90
17632;DHT22;8934;51.194;17.150;2023-07-20T11:40:49;24.20;99.90
17632;DHT22;8934;51.194;17.150;2023-07-20T11:43:38;24.60;99.90
17632;DHT22;8934;51.194;17.150;2023-07-20T11:46:27;24.80;99.90
17632;DHT22;8934;51.194;17.150;2023-07-20T11:49:14;24.60;99.90
17632;DHT22;8934;51.194;17.150;2023-07-20T11:52:02;24.30;99.90
17632;DHT22;8934;51.194;17.150;2023-07-20T11:54:50;23.90;99.90
17632;DHT22;8934;51.194;17.150;2023-07-20T11:57:38;23.60;99.90
17632;DHT22;8934;51.194;17.150;2023-07-20T12:00:27;23.50;99.90
17632;DHT22;8934;51.194;17.150;2023-07-20T12:03:15;23.50;99.90
17632;DHT22;8934;51.194;17.150;2023-07-20T12:06:06;23.20;99.90
17632;DHT22;8934;51.194;17.150;2023-07-20T12:08:56;23.00;99.90
17632;DHT22;8934;51.194;17.150;2023-07-20T12:11:44;23.00;99.90
17632;DHT22;8934;51.194;17.150;2023-07-20T12:14:32;23.10;99.90
17632;DHT22;8934;51.194;17.150;2023-07-20T12:17:21;23.30;99.90
17632;DHT22;8934;51.194;17.150;2023-07-20T12:20:10;23.50;99.90
17632;DHT22;8934;51.194;17.150;2023-07-20T12:23:00;23.60;99.90
17632;DHT22;8934;51.194;17.150;2023-07-20T12:25:48;24.20;99.90
17632;DHT22;8934;51.194;17.150;2023-07-20T12:28:39;24.70;99.90
17632;DHT22;8934;51.194;17.150;2023-07-20T12:31:28;24.80;99.90
17632;DHT22;8934;51.194;17.150;2023-07-20T12:34:17;24.70;99.90
17632;DHT22;8934;51.194;17.150;2023-07-20T12:37:05;24.80;99.90
17632;DHT22;8934;51.194;17.150;2023-07-20T12:39:56;24.80;99.90
17632;DHT22;8934;51.194;17.150;2023-07-20T12:42:43;24.60;99.90
17632;DHT22;8934;51.194;17.150;2023-07-20T12:45:31;24.30;99.90
17632;DHT22;8934;51.194;17.150;2023-07-20T12:48:19;24.30;99.90
17632;DHT22;8934;51.194;17.150;2023-07-20T12:51:08;24.40;99.90
17632;DHT22;8934;51.194;17.150;2023-07-20T12:53:56;24.20;99.90
17632;DHT22;8934;51.194;17.150;2023-07-20T12:56:44;24.20;99.90
17632;DHT22;8934;51.194;17.150;2023-07-20T12:59:34;24.80;99.90
17632;DHT22;8934;51.194;17.150;2023-07-20T13:02:22;25.60;99.90
17632;DHT22;8934;51.194;17.150;2023-07-20T13:05:09;26.20;99.90
17632;DHT22;8934;51.194;17.150;2023-07-20T13:07:59;26.40;99.90
17632;DHT22;8934;51.194;17.150;2023-07-20T13:10:52;26.50;99.90
17632;DHT22;8934;51.194;17.150;2023-07-20T13:13:40;26.40;99.90
17632;DHT22;8934;51.194;17.150;2023-07-20T13:16:27;26.10;99.90
17632;DHT22;8934;51.194;17.150;2023-07-20T13:19:15;25.80;99.90
17632;DHT22;8934;51.194;17.150;2023-07-20T13:22:03;25.40;99.90
17632;DHT22;8934;51.194;17.150;2023-07-20T13:24:52;25.20;99.90
17632;DHT22;8934;51.194;17.150;2023-07-20T13:27:40;25.10;99.90
17632;DHT22;8934;51.194;17.150;2023-07-20T13:30:28;25.70;99.90
17632;DHT22;8934;51.194;17.150;2023-07-20T13:33:16;26.60;99.90
17632;DHT22;8934;51.194;17.150;2023-07-20T13:36:05;27.20;99.90
17632;DHT22;8934;51.194;17.150;2023-07-20T13:38:54;27.30;99.90
17632;DHT22;8934;51.194;17.150;2023-07-20T13:41:45;26.90;99.90
17632;DHT22;8934;51.194;17.150;2023-07-20T13:44:34;26.60;99.90
17632;DHT22;8934;51.194;17.150;2023-07-20T13:47:21;26.50;99.90
17632;DHT22;8934;51.194;17.150;2023-07-20T13:50:09;26.30;99.90
17632;DHT22;8934;51.194;17.150;2023-07-20T13:53:12;26.40;99.90
17632;DHT22;8934;51.194;17.150;2023-07-20T13:56:03;26.70;99.90
17632;DHT22;8934;51.194;17.150;2023-07-20T13:58:55;27.20;99.90
17632;DHT22;8934;51.194;17.150;2023-07-20T14:01:44;27.40;99.90
17632;DHT22;8934;51.194;17.150;2023-07-20T14:04:32;27.10;99.90
17632;DHT22;8934;51.194;17.150;2023-07-20T14:07:20;27.20;99.90
17632;DHT22;8934;51.194;17.150;2023-07-20T14:10:08;27.40;99.30
17632;DHT22;8934;51.194;17.150;2023-07-20T14:12:58;27.70;99.80
17632;DHT22;8934;51.194;17.150;2023-07-20T14:15:47;28.00;99.80
17632;DHT22;8934;51.194;17.150;2023-07-20T14:18:36;28.30;99.50
17632;DHT22;8934;51.194;17.150;2023-07-20T14:21:24;28.50;99.20
17632;DHT22;8934;51.194;17.150;2023-07-20T14:24:12;28.70;98.60
17632;DHT22;8934;51.194;17.150;2023-07-20T14:27:05;29.00;99.10
17632;DHT22;8934;51.194;17.150;2023-07-20T14:29:52;29.30;98.30
17632;DHT22;8934;51.194;17.150;2023-07-20T14:32:43;29.50;96.90
17632;DHT22;8934;51.194;17.150;2023-07-20T14:35:31;28.80;97.30
17632;DHT22;8934;51.194;17.150;2023-07-20T14:38:18;28.80;97.40
17632;DHT22;8934;51.194;17.150;2023-07-20T14:41:06;29.00;98.40
17632;DHT22;8934;51.194;17.150;2023-07-20T14:43:54;28.90;97.00
17632;DHT22;8934;51.194;17.150;2023-07-20T14:46:43;28.50;97.20
17632;DHT22;8934;51.194;17.150;2023-07-20T14:49:52;27.60;98.70
17632;DHT22;8934;51.194;17.150;2023-07-20T14:52:41;27.70;99.10
17632;DHT22;8934;51.194;17.150;2023-07-20T14:55:31;28.10;98.30
17632;DHT22;8934;51.194;17.150;2023-07-20T14:58:19;28.50;98.30
17632;DHT22;8934;51.194;17.150;2023-07-20T15:01:07;28.50;97.00
17632;DHT22;8934;51.194;17.150;2023-07-20T15:03:55;28.10;97.80
17632;DHT22;8934;51.194;17.150;2023-07-20T15:06:46;27.90;99.50
17632;DHT22;8934;51.194;17.150;2023-07-20T15:09:34;28.30;97.60
17632;DHT22;8934;51.194;17.150;2023-07-20T15:12:22;28.10;97.60
17632;DHT22;8934;51.194;17.150;2023-07-20T15:15:11;27.60;97.80
17632;DHT22;8934;51.194;17.150;2023-07-20T15:17:59;27.10;98.10
17632;DHT22;8934;51.194;17.150;2023-07-20T15:20:47;26.60;98.90
17632;DHT22;8934;51.194;17.150;2023-07-20T15:23:41;25.90;99.30
17632;DHT22;8934;51.194;17.150;2023-07-20T15:26:29;25.30;99.90
17632;DHT22;8934;51.194;17.150;2023-07-20T15:29:17;25.00;99.90
17632;DHT22;8934;51.194;17.150;2023-07-20T15:32:10;24.80;99.90
17632;DHT22;8934;51.194;17.150;2023-07-20T15:34:58;24.70;99.90
17632;DHT22;8934;51.194;17.150;2023-07-20T15:37:46;24.70;99.90
17632;DHT22;8934;51.194;17.150;2023-07-20T15:40:35;24.80;99.90
17632;DHT22;8934;51.194;17.150;2023-07-20T15:43:23;25.10;99.90
17632;DHT22;8934;51.194;17.150;2023-07-20T15:46:44;26.00;99.90
17632;DHT22;8934;51.194;17.150;2023-07-20T15:49:37;27.00;99.80
17632;DHT22;8934;51.194;17.150;2023-07-20T15:52:24;27.70;99.30
17632;DHT22;8934;51.194;17.150;2023-07-20T15:55:12;27.70;97.60
17632;DHT22;8934;51.194;17.150;2023-07-20T15:58:01;27.30;98.40
17632;DHT22;8934;51.194;17.150;2023-07-20T16:00:53;27.00;99.40
17632;DHT22;8934;51.194;17.150;2023-07-20T16:03:42;26.80;99.10
17632;DHT22;8934;51.194;17.150;2023-07-20T16:06:30;26.40;99.20
17632;DHT22;8934;51.194;17.150;2023-07-20T16:09:18;25.90;99.10
17632;DHT22;8934;51.194;17.150;2023-07-20T16:12:07;25.90;99.30
17632;DHT22;8934;51.194;17.150;2023-07-20T16:14:56;26.40;99.70
17632;DHT22;8934;51.194;17.150;2023-07-20T16:17:46;27.00;99.10
17632;DHT22;8934;51.194;17.150;2023-07-20T16:20:33;27.70;97.50
17632;DHT22;8934;51.194;17.150;2023-07-20T16:23:21;28.10;96.70
17632;DHT22;8934;51.194;17.150;2023-07-20T16:26:09;28.00;96.20
17632;DHT22;8934;51.194;17.150;2023-07-20T16:28:56;28.00;95.20
17632;DHT22;8934;51.194;17.150;2023-07-20T16:31:48;27.60;95.90
17632;DHT22;8934;51.194;17.150;2023-07-20T16:34:39;26.70;97.10
17632;DHT22;8934;51.194;17.150;2023-07-20T16:37:30;26.10;98.40
17632;DHT22;8934;51.194;17.150;2023-07-20T16:40:20;26.20;98.30
17632;DHT22;8934;51.194;17.150;2023-07-20T16:43:11;26.60;97.60
17632;DHT22;8934;51.194;17.150;2023-07-20T16:45:59;26.70;96.30
17632;DHT22;8934;51.194;17.150;2023-07-20T16:49:08;26.30;97.00
17632;DHT22;8934;51.194;17.150;2023-07-20T16:51:56;25.70;97.60
17632;DHT22;8934;51.194;17.150;2023-07-20T16:54:44;25.40;99.40
17632;DHT22;8934;51.194;17.150;2023-07-20T16:57:31;25.40;98.90
17632;DHT22;8934;51.194;17.150;2023-07-20T17:00:19;25.20;99.20
17632;DHT22;8934;51.194;17.150;2023-07-20T17:03:08;25.00;99.70
17632;DHT22;8934;51.194;17.150;2023-07-20T17:05:57;24.60;99.90
17632;DHT22;8934;51.194;17.150;2023-07-20T17:08:44;24.30;99.90
17632;DHT22;8934;51.194;17.150;2023-07-20T17:11:32;24.10;99.90
17632;DHT22;8934;51.194;17.150;2023-07-20T17:14:20;23.80;99.90
17632;DHT22;8934;51.194;17.150;2023-07-20T17:17:08;23.60;99.90
17632;DHT22;8934;51.194;17.150;2023-07-20T17:19:57;23.50;99.90
17632;DHT22;8934;51.194;17.150;2023-07-20T17:22:49;23.40;99.90
17632;DHT22;8934;51.194;17.150;2023-07-20T17:25:36;23.30;99.90
17632;DHT22;8934;51.194;17.150;2023-07-20T17:28:44;23.30;99.90
17632;DHT22;8934;51.194;17.150;2023-07-20T17:31:33;23.10;99.90
17632;DHT22;8934;51.194;17.150;2023-07-20T17:34:20;23.00;99.90
17632;DHT22;8934;51.194;17.150;2023-07-20T17:37:07;22.90;99.90
17632;DHT22;8934;51.194;17.150;2023-07-20T17:40:06;22.70;99.90
17632;DHT22;8934;51.194;17.150;2023-07-20T17:42:58;22.60;99.90
17632;DHT22;8934;51.194;17.150;2023-07-20T17:45:49;22.50;99.90
17632;DHT22;8934;51.194;17.150;2023-07-20T17:48:36;22.40;99.90
17632;DHT22;8934;51.194;17.150;2023-07-20T17:51:24;22.30;99.90